Time;durP1;ratioP1;P1;durP2;ratioP2;P2;SDS_P1;SDS_P2;PMS_P1;PMS_P2;Temp;Humidity;BMP_temperature;BMP_pressure;BME280_temperature;BME280_humidity;BME280_pressure;Samples;Min_cycle;Max_cycle;Signal;HPM_P1;HPM_P2
2022/08/24 02:46:05;;;;;;;2.35;0.90;;;16.20;82.50;;;;;;5854031;23;93378;31
2022/08/24 02:48:31;;;;;;;4.15;0.90;;;15.60;84.60;;;;;;4801092;29;91932;-78
2022/08/24 02:50:56;;;;;;;3.33;1.00;;;15.40;86.70;;;;;;4799373;29;91657;-77
2022/08/24 02:53:23;;;;;;;2.38;0.88;;;15.40;87.00;;;;;;4800868;29;94037;-77
2022/08/24 02:55:49;;;;;;;1.98;0.75;;;15.50;87.20;;;;;;4803187;29;92735;-76
2022/08/24 02:58:16;;;;;;;3.15;0.77;;;15.70;84.90;;;;;;4804262;29;91642;-77
2022/08/24 03:00:47;;;;;;;3.47;0.85;;;15.80;84.90;;;;;;4792020;29;93015;-79
2022/08/24 03:03:13;;;;;;;2.85;0.68;;;15.70;84.70;;;;;;4802562;29;92597;-78
2022/08/24 03:05:39;;;;;;;3.80;0.80;;;15.70;83.80;;;;;;4803307;29;91800;-76
2022/08/24 03:08:05;;;;;;;3.45;0.73;;;15.80;83.60;;;;;;4803657;29;91932;-79
2022/08/24 03:10:32;;;;;;;3.00;0.82;;;15.70;84.30;;;;;;4802486;29;90874;-77
2022/08/24 03:13:00;;;;;;;4.10;0.70;;;15.90;83.50;;;;;;4806785;29;92770;-77
2022/08/24 03:15:26;;;;;;;2.72;0.93;;;15.80;83.50;;;;;;4804826;29;92478;-77
2022/08/24 03:17:52;;;;;;;6.30;1.05;;;15.70;84.70;;;;;;4793043;29;92972;-77
2022/08/24 03:20:20;;;;;;;2.00;0.88;;;15.60;85.20;;;;;;4802253;29;91636;-77
2022/08/24 03:22:46;;;;;;;3.78;1.00;;;15.70;85.10;;;;;;4787747;29;92272;-77
2022/08/24 03:25:15;;;;;;;2.47;1.10;;;15.70;85.20;;;;;;4793069;29;92028;-78
2022/08/24 03:27:40;;;;;;;3.05;1.25;;;15.70;86.30;;;;;;4806791;29;91959;-77
2022/08/24 03:30:09;;;;;;;4.38;1.25;;;15.50;86.20;;;;;;4806014;29;91321;-78
2022/08/24 03:32:35;;;;;;;4.70;1.13;;;15.40;87.70;;;;;;4802773;29;91632;-78
2022/08/24 03:35:03;;;;;;;2.83;1.10;;;15.30;87.80;;;;;;4791000;29;91277;-76
2022/08/24 03:37:28;;;;;;;5.32;1.17;;;15.40;87.40;;;;;;4796434;29;91701;-76
2022/08/24 03:39:54;;;;;;;2.63;1.27;;;15.10;88.60;;;;;;4805046;29;91321;-77
2022/08/24 03:42:20;;;;;;;3.92;1.38;;;14.80;90.40;;;;;;4803862;29;93023;-77
2022/08/24 03:44:45;;;;;;;6.80;1.30;;;14.60;91.20;;;;;;4815052;29;93385;-78
2022/08/24 03:47:12;;;;;;;3.53;1.65;;;14.50;91.70;;;;;;4798648;29;91363;-77
2022/08/24 03:49:38;;;;;;;6.72;1.27;;;14.40;92.70;;;;;;4809064;29;91788;-77
2022/08/24 03:52:05;;;;;;;6.70;1.40;;;14.30;93.20;;;;;;4809984;29;92110;-76
2022/08/24 03:54:31;;;;;;;5.88;1.52;;;14.20;93.60;;;;;;4805460;29;92670;-77
2022/08/24 03:57:00;;;;;;;6.68;1.45;;;14.10;95.20;;;;;;4806557;29;91956;-77
2022/08/24 03:59:26;;;;;;;3.50;1.60;;;14.00;96.20;;;;;;4806651;29;90967;-75
2022/08/24 04:01:54;;;;;;;6.15;1.80;;;14.00;96.80;;;;;;4795788;29;91956;-76
2022/08/24 04:04:20;;;;;;;3.50;1.50;;;14.00;97.20;;;;;;4799531;29;92540;-79
2022/08/24 04:06:47;;;;;;;5.13;1.80;;;14.10;96.50;;;;;;4804163;29;93070;-76
2022/08/24 04:09:13;;;;;;;3.08;1.70;;;14.00;97.80;;;;;;4803483;29;91330;-77
2022/08/24 04:11:39;;;;;;;4.88;1.50;;;14.00;98.80;;;;;;4804125;29;92383;-76
2022/08/24 04:14:07;;;;;;;3.45;1.40;;;13.90;99.70;;;;;;4805113;29;91825;-77
2022/08/24 04:16:33;;;;;;;4.25;1.38;;;14.10;98.70;;;;;;4806025;29;91747;-76
2022/08/24 04:18:59;;;;;;;4.40;1.30;;;14.20;98.20;;;;;;4802200;29;91382;-77
2022/08/24 04:21:27;;;;;;;4.68;1.63;;;14.30;97.40;;;;;;4804487;29;92082;-77
2022/08/24 04:23:54;;;;;;;4.40;1.42;;;14.20;98.40;;;;;;4803002;29;91517;-76
2022/08/24 04:26:22;;;;;;;3.95;1.40;;;14.20;98.40;;;;;;4793799;29;93772;-77
2022/08/24 04:28:48;;;;;;;3.38;1.52;;;14.10;98.70;;;;;;4807161;29;91598;-76
2022/08/24 04:31:17;;;;;;;5.47;1.50;;;14.00;98.70;;;;;;4796970;29;93588;-77
2022/08/24 04:33:48;;;;;;;5.78;1.60;;;14.00;99.30;;;;;;4803491;29;92113;-77
2022/08/24 04:36:16;;;;;;;3.28;1.17;;;13.90;99.90;;;;;;4803979;29;92184;-77
2022/08/24 04:38:41;;;;;;;3.50;1.23;;;13.90;99.50;;;;;;4803459;29;91651;-78
2022/08/24 04:41:11;;;;;;;5.85;2.10;;;14.00;99.30;;;;;;4803214;29;92401;-77
2022/08/24 04:43:38;;;;;;;3.83;1.55;;;14.00;99.80;;;;;;4803891;29;92448;-77
2022/08/24 04:46:06;;;;;;;7.20;1.50;;;13.90;99.90;;;;;;4805080;29;91285;-76
2022/08/24 04:48:32;;;;;;;4.30;1.30;;;13.90;99.90;;;;;;4801578;29;91371;-77
2022/08/24 04:51:04;;;;;;;4.78;1.20;;;14.10;99.90;;;;;;4803732;29;92392;-77
2022/08/24 04:53:30;;;;;;;3.67;1.40;;;14.30;99.60;;;;;;4804588;29;92201;-77
2022/08/24 04:55:56;;;;;;;2.88;1.40;;;14.80;97.90;;;;;;4804596;29;93447;-75
2022/08/24 04:58:22;;;;;;;4.25;1.33;;;15.30;96.60;;;;;;4801705;29;91813;-79
2022/08/24 05:00:48;;;;;;;4.05;1.52;;;16.00;92.90;;;;;;4802942;29;92763;-77
2022/08/24 05:03:14;;;;;;;5.78;1.80;;;16.80;92.40;;;;;;4803992;29;91795;-77
2022/08/24 05:05:45;;;;;;;3.80;1.35;;;17.60;88.30;;;;;;4803925;29;92015;-77
2022/08/24 05:08:12;;;;;;;6.47;1.10;;;17.70;84.00;;;;;;4804667;29;91252;-78
2022/08/24 05:10:40;;;;;;;6.95;1.63;;;18.00;84.20;;;;;;4798063;29;93239;-78
2022/08/24 05:13:06;;;;;;;4.88;1.35;;;18.90;82.30;;;;;;4804013;29;91994;-77
2022/08/24 05:15:33;;;;;;;2.92;1.30;;;19.30;77.50;;;;;;4803874;29;91275;-76
2022/08/24 05:17:59;;;;;;;4.60;1.55;;;19.50;76.10;;;;;;4804298;29;91375;-77
2022/08/24 05:20:26;;;;;;;3.55;1.20;;;19.30;75.20;;;;;;4800929;29;93225;-77
2022/08/24 05:22:53;;;;;;;4.75;1.23;;;19.20;75.40;;;;;;4808902;29;92080;-77
2022/08/24 05:25:19;;;;;;;3.40;1.63;;;18.70;77.40;;;;;;4804668;29;91875;-77
2022/08/24 05:27:46;;;;;;;2.88;1.25;;;18.50;78.50;;;;;;4802483;29;92576;-77
2022/08/24 05:30:12;;;;;;;4.40;1.30;;;18.90;77.80;;;;;;4801318;29;92655;-77
2022/08/24 05:32:39;;;;;;;6.47;1.70;;;19.90;76.40;;;;;;4799289;29;91857;-77
2022/08/24 05:35:05;;;;;;;4.07;1.42;;;19.70;74.90;;;;;;4801126;29;91951;-77
2022/08/24 05:37:34;;;;;;;6.93;1.38;;;19.70;74.20;;;;;;4803147;29;91642;-78
2022/08/24 05:40:02;;;;;;;8.55;1.58;;;19.80;75.50;;;;;;4802677;29;92349;-79
2022/08/24 05:42:28;;;;;;;6.00;1.70;;;20.70;73.40;;;;;;4802839;29;94420;-78
2022/08/24 05:44:54;;;;;;;4.03;1.30;;;21.30;69.30;;;;;;4800540;29;92352;-78
2022/08/24 05:47:19;;;;;;;3.85;1.20;;;21.30;68.40;;;;;;4803756;29;91260;-78
2022/08/24 05:49:46;;;;;;;12.35;1.63;;;21.00;69.30;;;;;;4803246;29;91665;-78
2022/08/24 05:52:12;;;;;;;3.63;1.40;;;21.00;69.60;;;;;;4801647;29;93588;-78
2022/08/24 05:54:39;;;;;;;4.60;1.17;;;20.80;69.70;;;;;;4802387;29;91384;-78
2022/08/24 05:57:05;;;;;;;4.30;1.42;;;21.20;69.90;;;;;;4803247;29;92332;-79
2022/08/24 05:59:31;;;;;;;5.00;1.48;;;21.90;66.70;;;;;;4802023;29;91945;-78
2022/08/24 06:01:57;;;;;;;4.25;1.20;;;22.50;65.00;;;;;;4800258;29;91443;-80
2022/08/24 06:04:22;;;;;;;3.33;1.10;;;23.30;61.80;;;;;;4805385;29;91883;-78
2022/08/24 06:06:48;;;;;;;6.80;1.55;;;22.60;64.70;;;;;;4801242;29;93225;-78
2022/08/24 06:09:14;;;;;;;4.97;1.60;;;21.90;65.80;;;;;;4802813;29;92772;-78
2022/08/24 06:11:40;;;;;;;6.82;1.30;;;21.40;66.80;;;;;;4801428;29;93842;-78
2022/08/24 06:14:10;;;;;;;13.13;1.75;;;21.80;67.20;;;;;;4804067;29;91822;-79
2022/08/24 06:16:39;;;;;;;8.98;1.83;;;22.30;64.20;;;;;;4803454;29;91995;-78
2022/08/24 06:19:05;;;;;;;10.73;1.80;;;21.90;66.30;;;;;;4795145;29;92456;-79
2022/08/24 06:21:31;;;;;;;7.13;1.50;;;23.70;62.00;;;;;;4802089;29;91860;-79
2022/08/24 06:23:58;;;;;;;13.95;1.83;;;25.20;58.40;;;;;;4795899;29;91674;-80
2022/08/24 06:29:10;;;;;;;9.30;2.13;;;26.60;55.50;;;;;;4797350;29;91457;-82
2022/08/24 06:31:41;;;;;;;4.60;1.75;;;27.70;51.30;;;;;;4797846;29;91852;-79
2022/08/24 06:34:08;;;;;;;5.97;2.25;;;27.70;51.50;;;;;;4799967;29;92661;-80
2022/08/24 06:36:34;;;;;;;50.30;5.00;;;27.90;51.40;;;;;;4802961;29;91361;-80
2022/08/24 06:39:00;;;;;;;11.25;2.03;;;29.70;49.00;;;;;;4798267;29;92148;-80
2022/08/24 06:41:26;;;;;;;9.63;2.05;;;31.30;48.40;;;;;;4799334;29;92633;-80
2022/08/24 06:43:52;;;;;;;11.45;2.28;;;33.30;45.30;;;;;;4803296;29;91997;-82
2022/08/24 06:46:18;;;;;;;16.33;3.28;;;34.10;43.90;;;;;;4800556;29;91322;-81
2022/08/24 06:48:44;;;;;;;6.28;2.13;;;34.70;40.20;;;;;;4799139;29;92381;-82
2022/08/24 06:51:16;;;;;;;11.50;1.77;;;33.40;41.90;;;;;;4802364;29;91309;-82
2022/08/24 06:53:43;;;;;;;4.88;2.40;;;33.60;40.80;;;;;;4799147;29;91778;-82
2022/08/24 06:56:09;;;;;;;5.00;2.15;;;32.60;43.80;;;;;;4800286;29;91821;-82
2022/08/24 06:58:35;;;;;;;8.82;1.75;;;35.00;40.30;;;;;;4798319;29;92753;-82
2022/08/24 07:01:08;;;;;;;5.35;2.33;;;35.80;41.70;;;;;;4802810;29;92862;-82
2022/08/24 07:03:34;;;;;;;4.90;2.22;;;37.30;39.20;;;;;;4798588;29;92057;-83
2022/08/24 07:06:01;;;;;;;2.97;1.77;;;38.50;36.80;;;;;;4802729;29;91404;-83
2022/08/24 07:08:27;;;;;;;5.35;2.28;;;39.30;36.40;;;;;;4802380;29;93311;-83
2022/08/24 07:10:53;;;;;;;4.63;1.85;;;38.60;36.40;;;;;;4802328;29;92545;-82
2022/08/24 07:13:18;;;;;;;4.05;1.88;;;37.70;36.70;;;;;;4802916;29;91485;-82
2022/08/24 07:15:44;;;;;;;4.40;2.55;;;39.10;35.80;;;;;;4798150;29;90819;-82
2022/08/24 07:18:14;;;;;;;5.80;2.28;;;40.00;33.90;;;;;;4802715;29;92494;-82
2022/08/24 07:20:41;;;;;;;6.82;1.77;;;39.60;33.00;;;;;;4802920;29;91352;-82
2022/08/24 07:23:07;;;;;;;4.15;2.10;;;40.10;33.80;;;;;;4802645;29;92829;-82
2022/08/24 07:25:34;;;;;;;3.53;1.55;;;39.60;33.00;;;;;;4797595;29;92221;-81
2022/08/24 07:28:00;;;;;;;4.90;2.03;;;40.70;33.10;;;;;;4802215;29;92278;-82
2022/08/24 07:30:27;;;;;;;4.80;2.42;;;41.40;31.60;;;;;;4802116;29;91332;-80
2022/08/24 07:32:54;;;;;;;3.53;2.45;;;41.80;30.80;;;;;;4802307;29;91545;-80
2022/08/24 07:35:19;;;;;;;6.30;2.55;;;40.30;32.30;;;;;;4801970;29;91283;-80
2022/08/24 07:37:45;;;;;;;4.03;2.65;;;40.00;35.50;;;;;;4802450;29;91401;-80
2022/08/24 07:40:11;;;;;;;3.60;3.05;;;40.70;34.30;;;;;;4802389;29;91590;-79
2022/08/24 07:42:38;;;;;;;5.38;2.78;;;41.20;33.80;;;;;;4815312;29;91854;-80
2022/08/24 07:45:05;;;;;;;5.10;3.25;;;42.60;31.70;;;;;;4801424;29;92069;-80
2022/08/24 07:47:31;;;;;;;5.05;2.55;;;41.70;32.70;;;;;;4801556;29;93374;-81
2022/08/24 07:49:57;;;;;;;5.03;3.22;;;42.30;30.80;;;;;;4788513;29;93412;-80
2022/08/24 07:52:22;;;;;;;4.28;3.08;;;42.80;30.00;;;;;;4800177;29;91554;-80
2022/08/24 07:54:48;;;;;;;4.95;2.72;;;42.80;30.90;;;;;;4799982;29;92546;-80
2022/08/24 07:57:14;;;;;;;5.25;3.28;;;43.70;31.50;;;;;;4802378;29;92426;-80
2022/08/24 07:59:40;;;;;;;3.80;2.85;;;44.10;32.10;;;;;;4805124;29;91967;-80
2022/08/24 08:02:08;;;;;;;4.20;3.50;;;44.30;31.70;;;;;;4805968;29;91757;-80
2022/08/24 08:04:34;;;;;;;5.28;3.13;;;43.90;31.50;;;;;;4800353;29;91323;-80
2022/08/24 08:07:00;;;;;;;4.75;3.50;;;44.60;31.80;;;;;;4798204;29;94175;-80
2022/08/24 08:09:26;;;;;;;4.65;3.85;;;45.20;31.30;;;;;;4805394;29;91355;-80
2022/08/24 08:11:51;;;;;;;6.30;4.43;;;45.30;31.00;;;;;;4804776;29;92970;-80
2022/08/24 08:14:17;;;;;;;6.07;3.83;;;46.20;30.10;;;;;;4805644;29;91807;-80
2022/08/24 08:16:43;;;;;;;4.43;4.03;;;45.70;30.20;;;;;;4804037;29;92557;-81
2022/08/24 08:19:09;;;;;;;6.53;4.50;;;45.60;30.90;;;;;;4805546;29;92257;-81
2022/08/24 08:24:25;;;;;;;4.32;3.40;;;45.20;31.30;;;;;;4800466;29;91369;-81
2022/08/24 08:26:51;;;;;;;5.60;5.10;;;45.90;30.00;;;;;;4802518;29;92042;-80
2022/08/24 08:29:18;;;;;;;4.15;3.72;;;46.00;30.60;;;;;;4804880;29;91057;-81
2022/08/24 08:31:44;;;;;;;5.85;5.25;;;45.60;30.60;;;;;;4803687;29;91589;-80
2022/08/24 08:34:11;;;;;;;9.27;4.75;;;43.70;32.30;;;;;;4817082;29;91995;-80
2022/08/24 08:36:39;;;;;;;7.72;5.32;;;43.90;32.90;;;;;;4802688;29;93006;-80
2022/08/24 08:39:11;;;;;;;5.70;5.05;;;44.10;32.40;;;;;;4804205;29;93434;-80
2022/08/24 08:42:18;;;;;;;5.65;5.07;;;45.60;31.60;;;;;;4794509;29;91418;-80
2022/08/24 08:45:04;;;;;;;5.78;4.63;;;46.80;30.20;;;;;;4794527;29;91414;-80
2022/08/24 08:47:59;;;;;;;7.15;5.22;;;47.40;30.30;;;;;;4802911;29;92384;-81
2022/08/24 08:50:35;;;;;;;6.50;5.90;;;48.20;30.00;;;;;;4804098;29;92061;-80
2022/08/24 08:53:29;;;;;;;6.82;6.22;;;47.60;30.40;;;;;;4802794;29;91340;-81
2022/08/24 08:56:12;;;;;;;7.38;4.72;;;48.20;29.90;;;;;;4802889;29;90659;-81
2022/08/24 08:59:06;;;;;;;5.93;5.35;;;48.00;29.80;;;;;;4798676;29;92303;-81
2022/08/24 09:01:46;;;;;;;5.82;5.22;;;47.40;29.60;;;;;;4797705;29;91978;-83
2022/08/24 09:04:31;;;;;;;7.80;6.38;;;47.70;30.00;;;;;;4800935;29;94298;-80
2022/08/24 09:06:59;;;;;;;6.88;5.38;;;46.20;30.40;;;;;;4803047;29;91966;-80
2022/08/24 09:09:40;;;;;;;5.45;4.95;;;45.30;31.30;;;;;;4798593;29;92380;-80
2022/08/24 09:12:36;;;;;;;8.50;6.32;;;45.80;31.40;;;;;;4801917;29;91737;-82
2022/08/24 09:15:40;;;;;;;6.35;5.72;;;46.60;30.80;;;;;;4799985;29;92179;-81
2022/08/24 09:18:08;;;;;;;8.75;5.93;;;46.20;30.90;;;;;;4803554;29;91685;-80
2022/08/24 09:20:34;;;;;;;7.80;7.03;;;45.70;31.80;;;;;;4802524;29;92304;-82
2022/08/24 09:23:28;;;;;;;7.82;5.57;;;45.80;31.70;;;;;;4801956;29;91325;-82
2022/08/24 09:26:16;;;;;;;6.47;5.85;;;45.50;30.90;;;;;;4802671;29;92842;-80
2022/08/24 09:29:01;;;;;;;7.10;6.40;;;46.40;30.60;;;;;;4793494;29;92571;-81
2022/08/24 09:31:36;;;;;;;8.85;8.02;;;46.60;30.20;;;;;;4793955;29;93405;-81
2022/08/24 09:34:07;;;;;;;7.57;6.75;;;45.40;31.40;;;;;;4801650;29;92861;-81
2022/08/24 09:37:11;;;;;;;6.15;5.53;;;44.40;32.10;;;;;;4809054;29;92405;-81
2022/08/24 09:39:57;;;;;;;6.63;5.35;;;44.70;32.10;;;;;;4801576;29;91781;-81
2022/08/24 09:42:32;;;;;;;5.90;5.25;;;43.60;33.10;;;;;;4801485;29;92613;-81
2022/08/24 09:45:32;;;;;;;8.77;7.97;;;44.90;31.50;;;;;;4801326;29;92497;-80
2022/08/24 09:48:15;;;;;;;7.18;4.95;;;47.30;29.70;;;;;;4800943;29;91573;-80
2022/08/24 09:51:05;;;;;;;6.68;5.85;;;47.00;29.90;;;;;;4800652;29;90872;-80
2022/08/24 09:53:59;;;;;;;5.43;4.93;;;48.20;29.10;;;;;;4802032;29;92382;-80
2022/08/24 09:56:36;;;;;;;5.43;4.80;;;48.20;29.00;;;;;;4796775;29;92085;-80
2022/08/24 09:59:23;;;;;;;6.53;5.97;;;47.40;29.30;;;;;;4801034;29;93175;-82
2022/08/24 10:02:14;;;;;;;7.95;6.53;;;48.30;28.30;;;;;;4801821;29;91484;-79
2022/08/24 10:04:55;;;;;;;7.78;7.07;;;49.40;27.80;;;;;;4794000;29;92311;-83
2022/08/24 10:08:17;;;;;;;6.55;5.68;;;48.80;27.80;;;;;;4801736;29;92234;-82
2022/08/24 10:10:52;;;;;;;7.53;5.40;;;49.00;27.80;;;;;;4755022;29;91879;-83
2022/08/24 10:13:21;;;;;;;8.38;7.68;;;49.60;27.50;;;;;;4766176;29;92387;-82
2022/08/24 10:15:52;;;;;;;6.32;4.97;;;49.30;27.00;;;;;;4788345;29;93282;-81
2022/08/24 10:18:24;;;;;;;5.13;4.70;;;48.10;27.00;;;;;;4801503;29;92400;-81
2022/08/24 10:21:30;;;;;;;5.85;5.43;;;46.90;27.40;;;;;;4793930;29;91755;-82
2022/08/24 10:24:17;;;;;;;5.32;4.72;;;45.10;28.80;;;;;;4800554;29;92215;-80
2022/08/24 10:27:05;;;;;;;5.18;4.32;;;42.70;29.10;;;;;;4794320;29;93289;-80
2022/08/24 10:30:06;;;;;;;7.22;4.13;;;40.40;30.70;;;;;;4803478;29;93194;-81
2022/08/24 10:33:03;;;;;;;4.70;3.13;;;37.90;33.50;;;;;;4800310;29;91404;-80
2022/08/24 10:35:32;;;;;;;4.35;2.45;;;35.20;36.30;;;;;;4803613;29;93081;-79
2022/08/24 10:41:25;;;;;;;4.00;2.08;;;32.90;39.20;;;;;;4799654;29;91708;-79
2022/08/24 10:43:54;;;;;;;3.92;3.15;;;31.60;41.80;;;;;;4801768;29;91936;-81
2022/08/24 10:46:35;;;;;;;4.03;1.95;;;30.70;46.40;;;;;;4798608;29;91309;-81
2022/08/24 10:49:32;;;;;;;2.15;1.35;;;30.20;46.60;;;;;;4793111;29;93557;-81
2022/08/24 10:52:22;;;;;;;3.30;1.27;;;29.60;46.00;;;;;;4793326;29;93429;-81
2022/08/24 10:54:48;;;;;;;3.08;1.85;;;29.40;46.80;;;;;;4802983;29;92975;-81
2022/08/24 10:57:30;;;;;;;4.53;1.73;;;29.50;46.50;;;;;;4807915;29;91407;-81
2022/08/24 11:00:17;;;;;;;3.05;1.58;;;29.80;47.60;;;;;;4803896;29;92150;-81
2022/08/24 11:02:45;;;;;;;6.10;1.90;;;29.60;48.10;;;;;;4799627;29;91693;-81
2022/08/24 11:05:28;;;;;;;2.45;1.20;;;29.10;48.40;;;;;;4796777;29;91972;-81
2022/08/24 11:08:04;;;;;;;2.88;1.20;;;28.90;50.60;;;;;;4798553;29;92136;-82
2022/08/24 11:10:31;;;;;;;;;;;28.80;52.00;;;;;;4801503;29;93175;-80
2022/08/24 11:13:16;;;;;;;5.25;1.50;;;28.60;52.10;;;;;;4807132;29;90978;-82
2022/08/24 11:15:57;;;;;;;3.58;1.80;;;28.40;50.00;;;;;;4795347;29;91782;-83
2022/08/24 11:18:23;;;;;;;2.83;1.33;;;28.50;50.40;;;;;;4803039;29;92615;-80
2022/08/24 11:20:53;;;;;;;2.20;1.27;;;28.70;50.00;;;;;;4800233;29;92607;-80
2022/08/24 11:23:34;;;;;;;2.33;1.35;;;28.50;50.30;;;;;;4802420;29;92298;-81
2022/08/24 11:26:20;;;;;;;2.42;1.42;;;28.30;50.30;;;;;;4802050;29;91322;-81
2022/08/24 11:28:49;;;;;;;2.78;1.38;;;28.10;52.40;;;;;;4800905;29;91912;-82
2022/08/24 11:31:42;;;;;;;6.18;1.40;;;28.00;53.20;;;;;;4802766;29;92086;-82
2022/08/24 11:34:13;;;;;;;3.13;1.27;;;27.90;51.90;;;;;;4803243;29;91954;-82
2022/08/24 11:36:40;;;;;;;3.08;1.08;;;27.90;52.50;;;;;;4806405;29;91728;-81
2022/08/24 11:39:19;;;;;;;3.67;0.90;;;28.10;52.30;;;;;;4805365;29;91375;-82
2022/08/24 11:41:54;;;;;;;3.75;1.15;;;28.20;50.70;;;;;;4802030;29;91746;-82
2022/08/24 11:44:23;;;;;;;3.92;1.33;;;28.30;50.40;;;;;;4804090;29;91990;-81
2022/08/24 11:47:02;;;;;;;3.55;1.15;;;28.00;51.00;;;;;;4799754;29;92967;-82
2022/08/24 11:50:06;;;;;;;3.65;1.23;;;27.80;52.70;;;;;;4804174;29;91920;-81
2022/08/24 11:52:51;;;;;;;1.67;0.95;;;28.20;49.60;;;;;;4770755;29;92350;-81
2022/08/24 11:55:29;;;;;;;4.22;0.95;;;28.00;50.70;;;;;;4803375;29;93561;-82
2022/08/24 11:57:58;;;;;;;3.55;1.02;;;28.20;52.00;;;;;;4804478;29;91749;-82
2022/08/24 12:00:29;;;;;;;;;;;28.20;51.70;;;;;;4801890;29;91962;-82
2022/08/24 12:03:28;;;;;;;1.95;1.13;;;28.10;52.20;;;;;;4806250;29;92082;-82
2022/08/24 12:06:23;;;;;;;3.08;1.10;;;28.20;52.40;;;;;;4798798;29;91504;-82
2022/08/24 12:09:17;;;;;;;2.50;0.82;;;28.20;50.70;;;;;;4803222;29;91351;-82
2022/08/24 12:11:50;;;;;;;3.40;0.90;;;28.10;51.40;;;;;;4805117;29;91571;-82
2022/08/24 12:14:43;;;;;;;4.70;1.23;;;28.10;51.10;;;;;;4804599;29;93466;-82
2022/08/24 12:17:24;;;;;;;2.15;1.00;;;28.10;50.00;;;;;;4797226;29;92947;-82
2022/08/24 12:20:03;;;;;;;2.00;0.90;;;27.90;51.20;;;;;;4803017;29;92496;-83
2022/08/24 12:22:30;;;;;;;2.95;1.02;;;28.00;52.30;;;;;;4805498;29;92465;-82
2022/08/24 12:24:59;;;;;;;1.52;0.70;;;28.00;51.60;;;;;;4804220;29;91768;-82
2022/08/24 12:27:29;;;;;;;4.25;1.00;;;28.00;50.80;;;;;;4804762;29;92101;-81
2022/08/24 12:30:12;;;;;;;2.55;0.65;;;27.90;51.80;;;;;;4804519;29;91341;-82
2022/08/24 12:32:45;;;;;;;4.30;1.00;;;27.70;50.30;;;;;;4805118;29;90682;-81
2022/08/24 12:35:23;;;;;;;2.42;0.85;;;27.50;51.20;;;;;;4805051;29;93775;-82
2022/08/24 12:37:58;;;;;;;1.92;0.88;;;27.50;52.10;;;;;;4803064;29;91508;-82
2022/08/24 12:41:06;;;;;;;1.88;0.70;;;27.80;52.70;;;;;;4803159;29;93692;-82
2022/08/24 12:43:41;;;;;;;3.25;0.88;;;27.90;51.50;;;;;;4804915;29;91357;-82
2022/08/24 12:46:10;;;;;;;1.90;0.63;;;28.00;51.60;;;;;;4804034;29;92357;-82
2022/08/24 12:48:37;;;;;;;;;;;27.80;51.50;;;;;;4804721;29;91959;-82
2022/08/24 12:51:20;;;;;;;3.38;0.77;;;27.80;52.30;;;;;;4805713;29;92492;-82
2022/08/24 12:54:04;;;;;;;2.92;0.77;;;27.80;50.60;;;;;;4801672;29;91628;-82
2022/08/24 12:56:56;;;;;;;2.60;0.93;;;28.10;50.40;;;;;;4804169;29;93157;-80
2022/08/24 12:59:35;;;;;;;2.80;1.08;;;28.00;51.30;;;;;;4788178;29;91320;-79
2022/08/24 13:02:06;;;;;;;5.80;0.70;;;27.80;49.80;;;;;;4804988;29;91888;-79
2022/08/24 13:04:47;;;;;;;2.58;1.15;;;27.80;51.00;;;;;;4803089;29;91326;-80
2022/08/24 13:07:22;;;;;;;1.75;0.80;;;27.90;51.10;;;;;;4804607;29;93390;-79
2022/08/24 13:09:57;;;;;;;4.80;1.10;;;27.80;51.30;;;;;;4797712;29;94031;-80
2022/08/24 13:12:40;;;;;;;3.25;0.63;;;27.90;51.40;;;;;;4802745;29;92010;-79
2022/08/24 13:15:30;;;;;;;1.98;0.60;;;27.90;50.70;;;;;;4822502;29;91824;-79
2022/08/24 13:17:57;;;;;;;2.05;0.80;;;27.60;50.90;;;;;;4804150;29;91625;-79
2022/08/24 13:20:48;;;;;;;4.47;1.23;;;27.70;52.00;;;;;;4813026;29;91881;-79
2022/08/24 13:23:18;;;;;;;2.25;0.75;;;27.70;51.70;;;;;;4797046;29;91732;-79
2022/08/24 13:25:48;;;;;;;3.78;0.80;;;28.00;50.10;;;;;;4804237;29;90985;-79
2022/08/24 13:28:20;;;;;;;3.17;0.80;;;28.10;50.00;;;;;;4804293;29;92626;-79
2022/08/24 13:31:04;;;;;;;3.00;0.70;;;27.70;50.80;;;;;;4798025;29;93479;-79
2022/08/24 13:33:47;;;;;;;2.10;0.68;;;27.60;50.90;;;;;;4804241;29;92240;-79
2022/08/24 13:36:43;;;;;;;3.55;0.82;;;27.50;50.40;;;;;;4802757;29;92373;-79
2022/08/24 13:39:21;;;;;;;2.70;0.80;;;27.50;51.90;;;;;;4800549;29;92759;-79
2022/08/24 13:42:00;;;;;;;1.95;0.70;;;27.80;49.70;;;;;;4804576;29;91268;-80
2022/08/24 13:44:55;;;;;;;3.22;0.70;;;27.80;50.10;;;;;;4805003;29;91992;-79
2022/08/24 13:47:48;;;;;;;2.65;0.70;;;27.70;52.30;;;;;;4800262;29;91956;-79
2022/08/24 13:50:36;;;;;;;1.05;0.55;;;27.70;50.80;;;;;;4803489;29;92274;-80
2022/08/24 13:53:24;;;;;;;3.58;0.80;;;27.70;50.70;;;;;;4798264;29;92178;-82
2022/08/24 13:56:14;;;;;;;2.13;1.00;;;27.60;50.70;;;;;;4796131;29;91673;-81
2022/08/24 13:58:54;;;;;;;2.92;0.80;;;27.60;52.20;;;;;;4784942;29;91678;-82
2022/08/24 14:01:37;;;;;;;1.35;0.63;;;27.50;52.70;;;;;;4802902;29;92596;-82
2022/08/24 14:04:09;;;;;;;1.33;0.68;;;27.40;51.40;;;;;;4797718;29;94860;-82
2022/08/24 14:06:38;;;;;;;3.55;0.80;;;27.50;51.80;;;;;;4798297;29;91326;-82
2022/08/24 14:09:38;;;;;;;1.48;0.52;;;27.60;51.60;;;;;;4802458;29;91549;-82
2022/08/24 14:12:29;;;;;;;1.65;0.63;;;27.80;50.40;;;;;;4801447;29;91986;-84
2022/08/24 14:15:14;;;;;;;1.73;0.50;;;27.70;51.40;;;;;;4798751;29;92148;-83
2022/08/24 14:17:53;;;;;;;2.67;0.73;;;27.50;50.90;;;;;;4798761;29;91432;-83
2022/08/24 14:20:56;;;;;;;3.35;0.93;;;27.60;52.00;;;;;;4798187;29;91258;-83
2022/08/24 14:23:34;;;;;;;2.53;1.00;;;27.60;50.10;;;;;;4802691;29;91522;-82
2022/08/24 14:26:37;;;;;;;2.50;0.90;;;27.60;51.90;;;;;;4796643;29;93425;-81
2022/08/24 14:29:18;;;;;;;2.15;0.85;;;27.50;51.90;;;;;;4792734;29;93418;-81
2022/08/24 14:31:59;;;;;;;2.25;0.68;;;27.50;51.80;;;;;;4799726;29;91521;-81
2022/08/24 14:34:34;;;;;;;1.45;0.50;;;27.50;52.70;;;;;;4803232;29;92761;-81
2022/08/24 14:37:08;;;;;;;2.63;0.50;;;27.60;51.70;;;;;;4800233;29;92175;-81
2022/08/24 14:39:54;;;;;;;2.05;0.65;;;27.70;52.30;;;;;;4803521;29;92030;-81
2022/08/24 14:42:54;;;;;;;1.50;0.85;;;27.80;52.00;;;;;;4799072;29;91814;-81
2022/08/24 14:45:56;;;;;;;2.28;0.52;;;27.70;51.60;;;;;;4794296;29;95390;-81
2022/08/24 14:48:37;;;;;;;2.90;1.10;;;27.70;51.20;;;;;;4801208;29;92474;-82
2022/08/24 14:51:09;;;;;;;1.70;0.88;;;27.70;52.50;;;;;;4802406;29;92020;-81
2022/08/24 14:54:02;;;;;;;2.33;0.73;;;27.70;51.10;;;;;;4800501;29;91890;-81
2022/08/24 14:56:57;;;;;;;3.10;0.50;;;27.60;52.60;;;;;;4799660;29;94131;-81
2022/08/24 14:59:38;;;;;;;4.22;0.82;;;27.70;52.40;;;;;;4799661;29;93454;-82
2022/08/24 15:02:28;;;;;;;2.97;0.57;;;27.70;50.60;;;;;;4797515;29;92014;-82
2022/08/24 15:05:23;;;;;;;6.22;0.77;;;27.80;48.80;;;;;;4801600;29;91917;-81
2022/08/24 15:07:57;;;;;;;5.57;0.95;;;27.90;49.70;;;;;;4807386;29;91728;-81
2022/08/24 15:10:26;;;;;;;3.53;1.08;;;27.90;49.70;;;;;;4804340;29;91754;-81
2022/08/24 15:12:55;;;;;;;1.63;0.95;;;28.00;51.10;;;;;;4809515;29;91586;-81
2022/08/24 15:15:26;;;;;;;2.42;0.63;;;27.90;49.80;;;;;;4805835;29;90716;-81
2022/08/24 15:18:07;;;;;;;2.65;0.75;;;27.70;49.20;;;;;;4807925;29;93051;-81
2022/08/24 15:21:01;;;;;;;2.33;0.88;;;27.60;50.00;;;;;;4803069;29;91687;-81
2022/08/24 15:24:07;;;;;;;4.15;0.63;;;27.60;50.00;;;;;;4812321;29;93364;-81
2022/08/24 15:26:52;;;;;;;6.20;0.60;;;27.60;50.40;;;;;;4804696;29;92203;-81
2022/08/24 15:29:22;;;;;;;1.55;0.57;;;27.70;51.20;;;;;;4802130;29;91750;-80
2022/08/24 15:31:59;;;;;;;3.90;0.75;;;27.70;50.40;;;;;;4805170;29;91455;-81
2022/08/24 15:34:33;;;;;;;2.03;0.68;;;27.70;51.10;;;;;;4806340;29;91757;-81
2022/08/24 15:37:00;;;;;;;1.70;0.85;;;27.60;51.30;;;;;;4805856;29;91405;-81
2022/08/24 15:39:28;;;;;;;2.15;0.60;;;27.50;51.30;;;;;;4805946;29;93354;-81
2022/08/24 15:41:54;;;;;;;2.65;0.77;;;27.40;51.70;;;;;;4805971;29;92449;-82
2022/08/24 15:44:27;;;;;;;2.38;0.60;;;27.40;52.50;;;;;;4803070;29;91387;-81
2022/08/24 15:46:55;;;;;;;4.03;0.93;;;27.50;52.20;;;;;;4808182;29;91557;-81
2022/08/24 15:49:20;;;;;;;3.97;0.70;;;27.50;51.80;;;;;;4806378;29;93339;-81
2022/08/24 15:51:58;;;;;;;2.50;0.88;;;27.40;52.30;;;;;;4800462;29;92702;-81
2022/08/24 15:54:25;;;;;;;2.28;0.85;;;27.40;53.30;;;;;;4804042;29;91478;-82
2022/08/24 15:56:59;;;;;;;1.70;0.85;;;27.30;52.90;;;;;;4805921;29;91857;-81
2022/08/24 15:59:44;;;;;;;1.42;0.63;;;27.30;53.10;;;;;;4805375;29;92568;-81
2022/08/24 16:02:27;;;;;;;1.95;0.77;;;27.30;53.20;;;;;;4803148;29;92041;-81
2022/08/24 16:05:17;;;;;;;1.52;0.60;;;27.30;53.10;;;;;;4806129;29;92128;-81
2022/08/24 16:08:01;;;;;;;3.90;0.80;;;27.30;54.40;;;;;;4801509;29;91403;-81
2022/08/24 16:10:32;;;;;;;1.77;0.70;;;27.20;54.10;;;;;;4805712;29;91763;-82
2022/08/24 16:13:06;;;;;;;1.90;1.05;;;27.10;54.00;;;;;;4798691;29;92678;-81
2022/08/24 16:15:32;;;;;;;2.30;0.73;;;27.10;54.30;;;;;;4799895;29;92319;-81
2022/08/24 16:17:58;;;;;;;1.90;0.77;;;27.10;55.10;;;;;;4812673;29;92383;-81
2022/08/24 16:20:24;;;;;;;2.90;0.80;;;27.00;55.90;;;;;;4797916;29;92706;-82